Time;durP1;ratioP1;P1;durP2;ratioP2;P2;SDS_P1;SDS_P2;PMS_P1;PMS_P2;Temp;Humidity;BMP_temperature;BMP_pressure;BME280_temperature;BME280_humidity;BME280_pressure;Samples;Min_cycle;Max_cycle;Signal;HPM_P1;HPM_P2
2022/01/08 00:00:57;;;;;;;30.10;21.20;;;;;;;;;;2080540;28;20680;-67
2022/01/08 00:01:57;;;;;;;34.50;22.50;;;;;;;;;;2080851;28;20184;-67
2022/01/08 00:02:58;;;;;;;32.70;22.27;;;;;;;;;;2081046;28;20172;-67
2022/01/08 00:03:58;;;;;;;29.77;21.77;;;;;;;;;;2077711;28;20196;-67
2022/01/08 00:05:00;;;;;;;29.60;21.00;;;;;;;;;;2078539;28;20279;-68
2022/01/08 00:06:00;;;;;;;37.03;23.10;;;;;;;;;;2080535;28;20168;-67
2022/01/08 00:07:00;;;;;;;34.33;22.60;;;;;;;;;;2080497;28;20444;-66
2022/01/08 00:08:00;;;;;;;29.83;21.70;;;;;;;;;;2077304;28;20254;-67
2022/01/08 00:09:01;;;;;;;34.90;21.63;;;;;;;;;;2080575;28;20164;-67
2022/01/08 00:10:01;;;;;;;32.53;22.23;;;;;;;;;;2080506;28;20200;-67
2022/01/08 00:11:01;;;;;;;34.13;21.63;;;;;;;;;;2080345;28;20195;-68
2022/01/08 00:12:02;;;;;;;27.57;20.80;;;;;;;;;;2075604;28;20181;-67
2022/01/08 00:13:05;;;;;;;34.87;22.87;;;;;;;;;;2087207;28;20163;-67
2022/01/08 00:14:06;;;;;;;32.37;21.77;;;;;;;;;;2088354;28;20221;-67
2022/01/08 00:15:07;;;;;;;33.53;22.80;;;;;;;;;;2081501;28;20187;-67
2022/01/08 00:16:07;;;;;;;30.50;21.03;;;;;;;;;;2080989;28;20179;-67
2022/01/08 00:17:07;;;;;;;33.10;22.37;;;;;;;;;;2080930;28;20183;-67
2022/01/08 00:18:07;;;;;;;33.47;21.73;;;;;;;;;;2081391;28;20270;-67
2022/01/08 00:19:08;;;;;;;31.80;22.80;;;;;;;;;;2081463;28;20259;-67
2022/01/08 00:20:09;;;;;;;35.67;22.37;;;;;;;;;;2080720;28;20190;-68
2022/01/08 00:21:09;;;;;;;30.73;21.00;;;;;;;;;;2080336;28;20219;-67
2022/01/08 00:22:11;;;;;;;29.83;21.30;;;;;;;;;;2080682;28;20183;-67
2022/01/08 00:23:11;;;;;;;28.00;21.27;;;;;;;;;;2081269;28;20191;-67
2022/01/08 00:24:11;;;;;;;32.50;21.47;;;;;;;;;;2081344;28;20417;-67
2022/01/08 00:25:11;;;;;;;29.97;21.50;;;;;;;;;;2080823;28;20227;-67
2022/01/08 00:26:12;;;;;;;28.93;19.27;;;;;;;;;;2080603;28;20593;-67
2022/01/08 00:27:12;;;;;;;29.70;22.00;;;;;;;;;;2081404;28;20255;-68
2022/01/08 00:28:12;;;;;;;32.97;21.07;;;;;;;;;;2080446;28;20259;-67
2022/01/08 00:29:13;;;;;;;30.57;20.93;;;;;;;;;;2072793;28;20184;-68
2022/01/08 00:30:13;;;;;;;32.63;22.40;;;;;;;;;;2080019;28;20180;-68
2022/01/08 00:31:13;;;;;;;34.60;22.97;;;;;;;;;;2080733;28;20550;-67
2022/01/08 00:32:14;;;;;;;33.03;20.77;;;;;;;;;;2080722;28;20172;-67
2022/01/08 00:33:14;;;;;;;31.57;23.20;;;;;;;;;;2080584;28;20176;-67
2022/01/08 00:34:15;;;;;;;31.03;20.37;;;;;;;;;;2081383;28;20180;-67
2022/01/08 00:35:17;;;;;;;29.20;21.60;;;;;;;;;;2080304;28;20683;-67
2022/01/08 00:36:17;;;;;;;32.80;23.17;;;;;;;;;;2078287;28;20230;-68
2022/01/08 00:37:18;;;;;;;33.00;23.43;;;;;;;;;;2079180;28;20680;-67
2022/01/08 00:38:18;;;;;;;34.17;23.33;;;;;;;;;;2079522;28;20256;-68
2022/01/08 00:39:18;;;;;;;36.30;23.80;;;;;;;;;;2074596;28;20187;-68
2022/01/08 00:40:18;;;;;;;30.47;22.13;;;;;;;;;;2080650;28;20177;-66
2022/01/08 00:41:19;;;;;;;28.50;20.47;;;;;;;;;;2078799;28;20743;-67
2022/01/08 00:42:19;;;;;;;29.87;21.13;;;;;;;;;;2072741;28;20545;-68
2022/01/08 00:43:19;;;;;;;29.27;21.43;;;;;;;;;;2078524;28;20179;-68
2022/01/08 00:44:19;;;;;;;31.13;23.07;;;;;;;;;;2079871;28;20271;-67
2022/01/08 00:45:20;;;;;;;27.80;20.87;;;;;;;;;;2080094;28;20199;-67
2022/01/08 00:46:20;;;;;;;32.00;21.80;;;;;;;;;;2079413;28;20226;-68
2022/01/08 00:47:20;;;;;;;31.80;21.27;;;;;;;;;;2073745;28;20669;-67
2022/01/08 00:48:20;;;;;;;30.53;22.73;;;;;;;;;;2080594;28;20164;-67
2022/01/08 00:49:22;;;;;;;27.97;22.10;;;;;;;;;;2079686;28;20566;-67
2022/01/08 00:50:22;;;;;;;30.97;22.10;;;;;;;;;;2071260;28;20276;-67
2022/01/08 00:51:22;;;;;;;37.10;23.17;;;;;;;;;;2079361;28;20171;-67
2022/01/08 00:52:22;;;;;;;29.07;21.53;;;;;;;;;;2080386;28;22665;-67
2022/01/08 00:53:23;;;;;;;34.27;21.80;;;;;;;;;;2079899;28;20180;-67
2022/01/08 00:54:23;;;;;;;35.57;22.87;;;;;;;;;;2080209;28;20214;-67
2022/01/08 00:55:23;;;;;;;29.53;21.23;;;;;;;;;;2080827;28;20656;-67
2022/01/08 00:56:23;;;;;;;31.50;21.87;;;;;;;;;;2080681;28;20199;-67
2022/01/08 00:57:24;;;;;;;34.00;23.30;;;;;;;;;;2081471;28;20215;-66
2022/01/08 00:58:24;;;;;;;31.60;22.93;;;;;;;;;;2078456;28;20173;-66
2022/01/08 00:59:24;;;;;;;34.67;23.13;;;;;;;;;;2079936;28;20180;-66
2022/01/08 01:00:24;;;;;;;30.47;22.17;;;;;;;;;;2078216;28;20184;-66
2022/01/08 01:01:25;;;;;;;29.23;22.97;;;;;;;;;;2074137;28;20204;-67
2022/01/08 01:02:25;;;;;;;37.47;25.27;;;;;;;;;;2080330;28;20173;-67
2022/01/08 01:03:25;;;;;;;35.40;23.63;;;;;;;;;;2074453;28;20177;-67
2022/01/08 01:04:26;;;;;;;38.00;25.40;;;;;;;;;;2080262;28;20219;-67
2022/01/08 01:05:26;;;;;;;35.67;24.93;;;;;;;;;;2080169;28;20180;-67
2022/01/08 01:06:26;;;;;;;36.50;25.60;;;;;;;;;;2079467;28;20287;-67
2022/01/08 01:07:26;;;;;;;35.07;25.77;;;;;;;;;;2079956;28;20222;-68
2022/01/08 01:08:27;;;;;;;34.10;24.00;;;;;;;;;;2080634;28;20180;-68
2022/01/08 01:09:27;;;;;;;36.47;25.77;;;;;;;;;;2080273;28;20200;-67
2022/01/08 01:10:27;;;;;;;38.23;27.13;;;;;;;;;;2079016;28;20204;-67
2022/01/08 01:11:27;;;;;;;37.07;26.37;;;;;;;;;;2079985;28;20176;-67
2022/01/08 01:12:28;;;;;;;36.30;23.80;;;;;;;;;;2080433;28;20176;-67
2022/01/08 01:13:28;;;;;;;37.40;26.33;;;;;;;;;;2080860;28;20180;-67
2022/01/08 01:14:28;;;;;;;39.83;27.60;;;;;;;;;;2080305;28;20549;-67
2022/01/08 01:15:29;;;;;;;40.73;26.43;;;;;;;;;;2077726;28;20169;-67
2022/01/08 01:16:29;;;;;;;39.40;28.00;;;;;;;;;;2076948;28;20596;-67
2022/01/08 01:17:29;;;;;;;38.30;25.57;;;;;;;;;;2076401;28;20287;-67
2022/01/08 01:18:30;;;;;;;40.57;27.73;;;;;;;;;;2079229;28;20673;-67
2022/01/08 01:19:30;;;;;;;40.20;28.23;;;;;;;;;;2077759;28;20256;-67
2022/01/08 01:20:30;;;;;;;39.27;27.13;;;;;;;;;;2074814;28;20234;-68
2022/01/08 01:21:31;;;;;;;41.23;27.67;;;;;;;;;;2080765;28;20184;-68
2022/01/08 01:22:42;;;;;;;35.80;25.97;;;;;;;;;;2080782;28;20168;-67
2022/01/08 01:23:44;;;;;;;44.93;29.63;;;;;;;;;;2080274;28;20199;-67
2022/01/08 01:24:45;;;;;;;43.67;29.60;;;;;;;;;;2080485;28;20463;-68
2022/01/08 01:25:52;;;;;;;36.53;26.30;;;;;;;;;;2081132;28;21040;-67
2022/01/08 01:28:23;;;;;;;42.07;28.87;;;;;;;;;;2073449;28;20181;-68
2022/01/08 01:29:36;;;;;;;39.87;27.70;;;;;;;;;;2074825;28;20193;-67
2022/01/08 01:42:29;;;;;;;41.43;30.13;;;;;;;;;;2080427;28;20413;-68
2022/01/08 01:47:17;;;;;;;45.30;30.53;;;;;;;;;;2080600;28;20949;-67
2022/01/08 01:48:17;;;;;;;44.93;29.23;;;;;;;;;;2081257;28;20401;-68
2022/01/08 01:49:17;;;;;;;45.23;29.63;;;;;;;;;;2080714;28;20187;-66
2022/01/08 01:50:17;;;;;;;44.33;30.30;;;;;;;;;;2080605;28;20204;-67
2022/01/08 01:51:22;;;;;;;40.07;28.33;;;;;;;;;;2072129;28;20177;-67
2022/01/08 01:52:22;;;;;;;41.73;30.20;;;;;;;;;;2072682;28;20187;-67
2022/01/08 01:53:22;;;;;;;42.93;27.97;;;;;;;;;;2080917;28;20429;-67
2022/01/08 01:54:22;;;;;;;42.17;27.63;;;;;;;;;;2080297;28;20204;-67
2022/01/08 01:55:23;;;;;;;40.27;30.23;;;;;;;;;;2080453;28;20178;-66
2022/01/08 01:56:23;;;;;;;40.10;29.33;;;;;;;;;;2080036;28;20176;-68
2022/01/08 01:57:24;;;;;;;48.47;32.23;;;;;;;;;;2080136;28;20220;-67
2022/01/08 01:58:24;;;;;;;46.23;30.40;;;;;;;;;;2081085;28;20164;-67
2022/01/08 01:59:25;;;;;;;42.23;30.53;;;;;;;;;;2081707;28;20669;-68
2022/01/08 02:00:25;;;;;;;44.40;31.23;;;;;;;;;;2082018;28;20191;-68
2022/01/08 02:01:26;;;;;;;52.67;32.40;;;;;;;;;;2082509;28;20168;-66
2022/01/08 02:02:26;;;;;;;45.30;32.00;;;;;;;;;;2089857;28;20204;-67
2022/01/08 02:03:26;;;;;;;52.83;34.57;;;;;;;;;;2089875;28;20168;-67
2022/01/08 02:04:27;;;;;;;48.67;32.63;;;;;;;;;;2082403;28;20617;-67
2022/01/08 02:05:27;;;;;;;53.27;34.30;;;;;;;;;;2081689;28;20203;-67
2022/01/08 02:06:27;;;;;;;50.43;33.60;;;;;;;;;;2081370;28;20210;-66
2022/01/08 02:07:28;;;;;;;51.10;34.73;;;;;;;;;;2081384;28;20219;-67
2022/01/08 02:08:29;;;;;;;51.70;33.73;;;;;;;;;;2081810;28;20618;-67
2022/01/08 02:09:29;;;;;;;56.03;35.57;;;;;;;;;;2082412;28;20656;-67
2022/01/08 02:10:29;;;;;;;54.67;36.67;;;;;;;;;;2081635;28;20249;-67
2022/01/08 02:11:29;;;;;;;54.80;34.40;;;;;;;;;;2081831;28;20188;-68
2022/01/08 02:12:33;;;;;;;54.10;33.87;;;;;;;;;;2081581;28;20184;-67
2022/01/08 02:13:34;;;;;;;46.53;30.93;;;;;;;;;;2082462;28;20172;-66
2022/01/08 02:14:35;;;;;;;49.53;32.50;;;;;;;;;;2082194;28;20415;-67
2022/01/08 02:15:36;;;;;;;47.93;33.67;;;;;;;;;;2082391;28;20168;-67
2022/01/08 02:16:37;;;;;;;49.63;32.70;;;;;;;;;;2081558;28;20901;-67
2022/01/08 02:17:37;;;;;;;52.33;34.33;;;;;;;;;;2081571;28;20208;-68
2022/01/08 02:18:37;;;;;;;55.63;34.43;;;;;;;;;;2081392;28;20226;-67
2022/01/08 02:19:38;;;;;;;53.37;33.80;;;;;;;;;;2078038;28;20185;-66
2022/01/08 02:20:39;;;;;;;47.27;32.33;;;;;;;;;;2081169;28;20180;-67
2022/01/08 02:21:44;;;;;;;51.53;32.93;;;;;;;;;;2081825;28;20924;-67
2022/01/08 02:22:45;;;;;;;53.87;31.43;;;;;;;;;;2081506;28;20211;-67
2022/01/08 02:23:47;;;;;;;52.03;31.03;;;;;;;;;;2081645;28;21000;-68
2022/01/08 02:24:48;;;;;;;52.73;33.03;;;;;;;;;;2081659;28;20674;-68
2022/01/08 02:25:49;;;;;;;53.17;33.43;;;;;;;;;;2082340;28;20508;-67
2022/01/08 02:26:49;;;;;;;52.80;32.60;;;;;;;;;;2081485;28;20204;-66
2022/01/08 02:27:49;;;;;;;45.97;31.27;;;;;;;;;;2081094;28;20196;-67
2022/01/08 02:28:49;;;;;;;49.70;32.67;;;;;;;;;;2081407;28;20186;-66
2022/01/08 02:29:50;;;;;;;48.97;30.07;;;;;;;;;;2081435;28;20199;-66
2022/01/08 02:30:50;;;;;;;49.77;32.20;;;;;;;;;;2081299;28;20256;-66
2022/01/08 02:31:52;;;;;;;51.10;34.20;;;;;;;;;;2081642;28;20238;-65
2022/01/08 02:32:52;;;;;;;46.20;32.80;;;;;;;;;;2073298;28;20196;-68
2022/01/08 02:33:53;;;;;;;46.67;34.33;;;;;;;;;;2073478;28;20429;-68
2022/01/08 02:34:54;;;;;;;52.53;34.10;;;;;;;;;;2081379;28;20168;-67
2022/01/08 02:35:54;;;;;;;43.53;30.83;;;;;;;;;;2080325;28;20266;-67
2022/01/08 02:36:55;;;;;;;54.83;32.83;;;;;;;;;;2081568;28;20278;-67
2022/01/08 02:37:55;;;;;;;48.90;31.87;;;;;;;;;;2081469;28;20196;-66
2022/01/08 02:38:55;;;;;;;51.40;32.70;;;;;;;;;;2081469;28;20279;-66
2022/01/08 02:39:56;;;;;;;48.00;31.60;;;;;;;;;;2081799;28;20652;-67
2022/01/08 02:41:01;;;;;;;51.13;32.13;;;;;;;;;;2082188;28;20202;-66
2022/01/08 02:42:02;;;;;;;51.10;32.17;;;;;;;;;;2081490;28;20555;-68
2022/01/08 02:43:04;;;;;;;49.90;33.03;;;;;;;;;;2081309;28;20453;-67
2022/01/08 02:44:06;;;;;;;47.37;32.97;;;;;;;;;;2089571;28;20216;-67
2022/01/08 02:45:06;;;;;;;48.50;32.40;;;;;;;;;;2089703;28;20424;-68
2022/01/08 02:46:07;;;;;;;54.17;32.90;;;;;;;;;;2081867;28;20420;-66
2022/01/08 02:47:07;;;;;;;56.17;33.13;;;;;;;;;;2082142;28;20256;-68
2022/01/08 02:48:09;;;;;;;46.47;32.87;;;;;;;;;;2081094;28;20268;-67
2022/01/08 02:49:09;;;;;;;50.37;34.40;;;;;;;;;;2081042;28;20177;-66
2022/01/08 02:50:09;;;;;;;50.90;34.80;;;;;;;;;;2081735;28;20464;-67
2022/01/08 02:51:09;;;;;;;50.17;34.57;;;;;;;;;;2081808;28;20195;-67
2022/01/08 02:52:10;;;;;;;55.00;34.73;;;;;;;;;;2082145;28;20180;-67
2022/01/08 02:53:10;;;;;;;51.93;34.00;;;;;;;;;;2082295;28;20196;-67
2022/01/08 02:54:11;;;;;;;47.00;33.43;;;;;;;;;;2082052;28;20643;-67
2022/01/08 02:55:20;;;;;;;48.83;33.57;;;;;;;;;;2082123;28;20186;-67
2022/01/08 02:56:21;;;;;;;51.60;31.97;;;;;;;;;;2080834;28;20160;-67
2022/01/08 02:57:21;;;;;;;43.80;32.17;;;;;;;;;;2081338;28;20488;-67
2022/01/08 02:58:25;;;;;;;48.70;32.37;;;;;;;;;;2081275;28;20234;-67
2022/01/08 02:59:26;;;;;;;43.83;31.33;;;;;;;;;;2080481;28;20185;-67
2022/01/08 03:00:26;;;;;;;51.37;33.70;;;;;;;;;;2077328;28;20453;-68
2022/01/08 03:01:26;;;;;;;50.47;33.70;;;;;;;;;;2074098;28;20184;-68
2022/01/08 03:02:26;;;;;;;54.03;33.30;;;;;;;;;;2073138;28;20203;-68
2022/01/08 03:03:27;;;;;;;53.80;33.07;;;;;;;;;;2072508;28;20257;-68
2022/01/08 03:04:27;;;;;;;51.47;34.00;;;;;;;;;;2072692;28;20268;-67
2022/01/08 03:05:28;;;;;;;55.73;35.17;;;;;;;;;;2073904;28;20256;-67
2022/01/08 03:06:28;;;;;;;56.13;35.77;;;;;;;;;;2078416;28;20569;-67
2022/01/08 03:07:28;;;;;;;50.87;33.00;;;;;;;;;;2081466;28;20188;-67
2022/01/08 03:08:28;;;;;;;52.50;31.47;;;;;;;;;;2080972;28;20747;-67
2022/01/08 03:09:30;;;;;;;48.87;34.10;;;;;;;;;;2081290;28;20160;-67
2022/01/08 03:10:30;;;;;;;51.83;34.93;;;;;;;;;;2081094;28;20225;-67
2022/01/08 03:11:31;;;;;;;50.00;33.83;;;;;;;;;;2082189;28;20414;-68
2022/01/08 03:12:31;;;;;;;54.77;36.73;;;;;;;;;;2082273;28;20692;-68
2022/01/08 03:13:31;;;;;;;54.67;34.70;;;;;;;;;;2082191;28;20608;-68
2022/01/08 03:14:32;;;;;;;55.10;34.23;;;;;;;;;;2082199;28;20204;-68
2022/01/08 03:15:34;;;;;;;50.03;34.20;;;;;;;;;;2081882;28;20173;-68
2022/01/08 03:16:34;;;;;;;56.93;35.50;;;;;;;;;;2082001;28;20303;-67
2022/01/08 03:17:34;;;;;;;61.80;35.47;;;;;;;;;;2080862;28;20453;-67
2022/01/08 03:18:37;;;;;;;56.50;33.87;;;;;;;;;;2072958;28;20602;-68
2022/01/08 03:19:38;;;;;;;52.13;36.03;;;;;;;;;;2081374;28;20172;-68
2022/01/08 03:20:47;;;;;;;54.77;34.47;;;;;;;;;;2080606;28;20398;-67
2022/01/08 03:21:52;;;;;;;53.33;35.03;;;;;;;;;;2081413;28;20424;-68
2022/01/08 03:22:58;;;;;;;53.50;34.30;;;;;;;;;;2082084;28;20428;-68
2022/01/08 03:24:01;;;;;;;49.40;34.67;;;;;;;;;;2082359;28;20942;-68
2022/01/08 03:25:01;;;;;;;52.23;34.43;;;;;;;;;;2081593;28;20419;-68
2022/01/08 03:26:02;;;;;;;47.83;32.97;;;;;;;;;;2080495;28;20890;-69
2022/01/08 03:27:02;;;;;;;57.17;34.97;;;;;;;;;;2080685;28;20214;-68
2022/01/08 03:28:03;;;;;;;53.33;32.43;;;;;;;;;;2081179;28;20559;-68
2022/01/08 03:29:03;;;;;;;50.83;32.50;;;;;;;;;;2081435;28;20164;-68
2022/01/08 03:30:04;;;;;;;49.27;33.27;;;;;;;;;;2081364;28;20179;-67
2022/01/08 03:31:05;;;;;;;50.13;33.37;;;;;;;;;;2081075;28;20204;-68
2022/01/08 03:32:05;;;;;;;49.67;34.30;;;;;;;;;;2081915;28;20928;-68
2022/01/08 03:33:06;;;;;;;52.43;34.80;;;;;;;;;;2081235;28;20513;-69
2022/01/08 03:34:06;;;;;;;51.70;34.33;;;;;;;;;;2081338;28;20177;-67
2022/01/08 03:35:07;;;;;;;49.30;34.07;;;;;;;;;;2081791;28;20227;-69
2022/01/08 03:36:07;;;;;;;46.60;32.80;;;;;;;;;;2081489;28;20687;-68
2022/01/08 03:37:08;;;;;;;49.33;33.50;;;;;;;;;;2081690;28;20413;-68
2022/01/08 03:38:08;;;;;;;49.40;33.07;;;;;;;;;;2082377;28;20176;-69
2022/01/08 03:39:08;;;;;;;53.57;35.40;;;;;;;;;;2081813;28;20271;-68
2022/01/08 03:40:09;;;;;;;53.10;33.93;;;;;;;;;;2081241;28;20180;-68
2022/01/08 03:41:09;;;;;;;51.43;35.33;;;;;;;;;;2082117;28;20180;-68
2022/01/08 03:42:10;;;;;;;48.83;33.30;;;;;;;;;;2080933;28;20200;-68
2022/01/08 03:43:10;;;;;;;47.97;33.37;;;;;;;;;;2081410;28;20310;-67
2022/01/08 03:44:11;;;;;;;49.50;32.20;;;;;;;;;;2081142;28;20282;-67
2022/01/08 03:45:11;;;;;;;51.93;32.87;;;;;;;;;;2081356;28;20235;-68
2022/01/08 03:46:11;;;;;;;48.47;34.27;;;;;;;;;;2081256;28;20218;-67
2022/01/08 03:48:30;;;;;;;48.77;33.10;;;;;;;;;;2081679;28;20175;-66
2022/01/08 03:49:31;;;;;;;54.30;34.43;;;;;;;;;;2081011;28;20495;-66
2022/01/08 03:50:31;;;;;;;55.50;34.10;;;;;;;;;;2079818;28;20414;-66
2022/01/08 03:51:31;;;;;;;50.17;33.83;;;;;;;;;;2076131;28;20203;-68
2022/01/08 03:52:32;;;;;;;50.43;33.43;;;;;;;;;;2080710;28;20172;-68
2022/01/08 03:53:32;;;;;;;49.40;33.63;;;;;;;;;;2076870;28;20180;-68
2022/01/08 03:54:32;;;;;;;48.03;33.77;;;;;;;;;;2081599;28;20248;-67
2022/01/08 03:55:33;;;;;;;46.33;35.23;;;;;;;;;;2081692;28;20203;-67
2022/01/08 03:56:33;;;;;;;54.67;36.60;;;;;;;;;;2081526;28;20242;-68
2022/01/08 03:57:33;;;;;;;54.57;36.20;;;;;;;;;;2081967;28;20189;-66
2022/01/08 03:58:33;;;;;;;56.20;36.47;;;;;;;;;;2081704;28;20172;-66
2022/01/08 03:59:34;;;;;;;56.20;36.80;;;;;;;;;;2078799;28;20272;-69
2022/01/08 04:00:34;;;;;;;57.13;36.70;;;;;;;;;;2076734;28;20183;-67
2022/01/08 04:01:34;;;;;;;57.30;37.23;;;;;;;;;;2076695;28;20271;-70
2022/01/08 04:02:34;;;;;;;57.63;37.23;;;;;;;;;;2081751;28;20306;-66
2022/01/08 04:03:35;;;;;;;58.70;38.07;;;;;;;;;;2079921;28;20234;-69
2022/01/08 04:04:35;;;;;;;54.80;34.50;;;;;;;;;;2081052;28;20279;-68
2022/01/08 04:05:35;;;;;;;55.83;37.23;;;;;;;;;;2080361;28;20199;-69
2022/01/08 04:06:36;;;;;;;57.93;34.60;;;;;;;;;;2080982;28;20208;-67
2022/01/08 04:07:36;;;;;;;59.40;37.00;;;;;;;;;;2079820;28;20188;-69
2022/01/08 04:08:36;;;;;;;53.97;35.33;;;;;;;;;;2080736;28;20201;-67
2022/01/08 04:09:37;;;;;;;60.27;37.40;;;;;;;;;;2080719;28;20210;-67
2022/01/08 04:10:37;;;;;;;54.23;35.63;;;;;;;;;;2080545;28;20263;-66
2022/01/08 04:11:37;;;;;;;53.03;35.47;;;;;;;;;;2081384;28;20181;-67
2022/01/08 04:12:48;;;;;;;60.40;37.30;;;;;;;;;;2081058;28;20203;-66
2022/01/08 04:13:48;;;;;;;50.23;34.07;;;;;;;;;;2080873;28;20160;-66
2022/01/08 04:15:03;;;;;;;52.53;31.83;;;;;;;;;;2082238;28;20796;-67
2022/01/08 04:16:11;;;;;;;63.70;36.83;;;;;;;;;;2082940;28;20182;-66
2022/01/08 04:17:14;;;;;;;52.30;33.83;;;;;;;;;;2082992;28;20417;-67
2022/01/08 04:18:14;;;;;;;60.77;36.93;;;;;;;;;;2083207;28;20390;-66
2022/01/08 04:19:14;;;;;;;52.53;34.30;;;;;;;;;;2082552;28;20421;-67
2022/01/08 04:20:15;;;;;;;60.97;38.37;;;;;;;;;;2083005;28;20238;-68
2022/01/08 04:22:16;;;;;;;58.77;36.30;;;;;;;;;;2082374;28;20179;-67
2022/01/08 04:23:20;;;;;;;59.73;38.93;;;;;;;;;;2082155;28;20264;-66
2022/01/08 04:24:21;;;;;;;61.67;39.30;;;;;;;;;;2081751;28;20405;-67
2022/01/08 04:25:22;;;;;;;59.83;38.57;;;;;;;;;;2081375;28;20429;-66
2022/01/08 04:26:23;;;;;;;60.73;36.97;;;;;;;;;;2081714;28;20247;-66
2022/01/08 04:27:23;;;;;;;61.50;39.10;;;;;;;;;;2081274;28;20215;-66
2022/01/08 04:28:23;;;;;;;58.77;37.63;;;;;;;;;;2081566;28;20412;-67
2022/01/08 04:29:24;;;;;;;60.07;39.60;;;;;;;;;;2081582;28;20571;-67
2022/01/08 04:30:24;;;;;;;54.63;35.20;;;;;;;;;;2080958;28;20160;-67
2022/01/08 04:31:24;;;;;;;54.67;33.53;;;;;;;;;;2086560;28;20653;-68
2022/01/08 04:32:25;;;;;;;62.13;37.10;;;;;;;;;;2086657;28;20176;-67
2022/01/08 04:33:25;;;;;;;63.50;39.60;;;;;;;;;;2087211;28;20565;-68
2022/01/08 04:34:27;;;;;;;59.43;35.47;;;;;;;;;;2087202;28;20182;-67
2022/01/08 04:35:27;;;;;;;67.03;39.67;;;;;;;;;;2086471;28;20198;-68
2022/01/08 04:36:28;;;;;;;60.13;38.60;;;;;;;;;;2088006;28;20414;-68
2022/01/08 04:37:28;;;;;;;58.23;37.10;;;;;;;;;;2088014;28;20218;-67
2022/01/08 04:38:28;;;;;;;66.93;39.87;;;;;;;;;;2087388;28;20183;-67
2022/01/08 04:39:28;;;;;;;65.47;39.40;;;;;;;;;;2087969;28;20171;-67
2022/01/08 04:40:29;;;;;;;64.00;38.73;;;;;;;;;;2087285;28;20263;-68
2022/01/08 04:41:29;;;;;;;57.80;35.80;;;;;;;;;;2088775;28;20637;-67
2022/01/08 04:42:29;;;;;;;53.57;34.47;;;;;;;;;;2089221;28;20198;-67
2022/01/08 04:43:30;;;;;;;64.17;39.40;;;;;;;;;;2089079;28;20164;-67
2022/01/08 04:44:30;;;;;;;60.40;38.77;;;;;;;;;;2088135;28;20657;-68
2022/01/08 04:45:31;;;;;;;57.27;36.50;;;;;;;;;;2089179;28;20184;-68
2022/01/08 04:46:31;;;;;;;63.13;39.23;;;;;;;;;;2088594;28;20584;-68
2022/01/08 04:47:31;;;;;;;59.00;38.27;;;;;;;;;;2088502;28;20225;-67
2022/01/08 04:48:32;;;;;;;59.53;39.27;;;;;;;;;;2082900;28;20164;-67
2022/01/08 04:49:32;;;;;;;66.93;40.10;;;;;;;;;;2082432;28;20172;-68
2022/01/08 04:50:32;;;;;;;59.80;37.80;;;;;;;;;;2074594;28;20645;-67
2022/01/08 04:51:32;;;;;;;63.17;39.87;;;;;;;;;;2076293;28;20165;-67
2022/01/08 04:52:33;;;;;;;62.37;38.40;;;;;;;;;;2081459;28;20245;-67
2022/01/08 04:53:34;;;;;;;68.90;40.83;;;;;;;;;;2082032;28;20770;-67
2022/01/08 04:54:34;;;;;;;61.23;40.63;;;;;;;;;;2079209;28;20172;-67
2022/01/08 04:55:34;;;;;;;65.93;39.40;;;;;;;;;;2080384;28;20698;-67
2022/01/08 04:56:34;;;;;;;65.93;38.93;;;;;;;;;;2080334;28;20653;-67
2022/01/08 04:57:35;;;;;;;62.47;37.70;;;;;;;;;;2080742;28;20246;-67
2022/01/08 04:58:35;;;;;;;66.00;38.23;;;;;;;;;;2077483;28;20300;-67
2022/01/08 04:59:35;;;;;;;69.67;40.53;;;;;;;;;;2075496;28;20184;-67
2022/01/08 05:00:37;;;;;;;65.13;38.90;;;;;;;;;;2073784;28;20181;-67
2022/01/08 05:01:37;;;;;;;66.13;39.97;;;;;;;;;;2080007;28;20168;-68
2022/01/08 05:02:37;;;;;;;67.23;41.83;;;;;;;;;;2080552;28;21137;-68
2022/01/08 05:03:37;;;;;;;67.53;42.60;;;;;;;;;;2081193;28;20172;-68
2022/01/08 05:04:37;;;;;;;72.97;40.33;;;;;;;;;;2077180;28;20232;-67
2022/01/08 05:05:38;;;;;;;66.50;39.57;;;;;;;;;;2081189;28;20171;-68
2022/01/08 05:06:38;;;;;;;67.77;40.80;;;;;;;;;;2078904;28;20294;-67
2022/01/08 05:07:39;;;;;;;67.63;42.10;;;;;;;;;;2077169;28;20661;-68
2022/01/08 05:08:39;;;;;;;64.43;35.53;;;;;;;;;;2078569;28;20199;-67
2022/01/08 05:09:39;;;;;;;66.17;39.83;;;;;;;;;;2077596;28;20219;-68
2022/01/08 05:10:40;;;;;;;69.30;40.90;;;;;;;;;;2084397;28;20173;-68
2022/01/08 05:11:40;;;;;;;67.90;38.27;;;;;;;;;;2083966;28;20902;-67
2022/01/08 05:12:40;;;;;;;70.90;41.47;;;;;;;;;;2084360;28;20676;-68
2022/01/08 05:13:43;;;;;;;69.40;41.70;;;;;;;;;;2084965;28;20217;-67
2022/01/08 05:14:44;;;;;;;64.70;40.43;;;;;;;;;;2086424;28;20272;-67
2022/01/08 05:15:44;;;;;;;70.93;42.27;;;;;;;;;;2084290;28;20421;-67
2022/01/08 05:16:45;;;;;;;64.47;40.20;;;;;;;;;;2086635;28;20436;-67
2022/01/08 05:17:53;;;;;;;74.10;44.33;;;;;;;;;;2097933;22;20212;-55
2022/01/08 05:18:54;;;;;;;67.63;41.17;;;;;;;;;;2068900;28;20666;-58
2022/01/08 05:19:56;;;;;;;59.13;38.30;;;;;;;;;;2083675;28;20404;-55
2022/01/08 05:21:09;;;;;;;72.77;42.43;;;;;;;;;;2080148;28;20476;-55
2022/01/08 05:22:17;;;;;;;70.03;41.37;;;;;;;;;;2065584;28;20783;-55
2022/01/08 05:23:18;;;;;;;69.83;41.57;;;;;;;;;;2073585;28;20438;-51
2022/01/08 05:24:18;;;;;;;66.27;39.40;;;;;;;;;;2073167;28;20528;-54
2022/01/08 05:25:19;;;;;;;64.80;39.60;;;;;;;;;;2074880;28;20189;-58
2022/01/08 05:26:20;;;;;;;72.50;41.53;;;;;;;;;;2073910;28;20236;-60
2022/01/08 05:27:21;;;;;;;70.13;41.60;;;;;;;;;;2074191;28;20421;-56
2022/01/08 05:28:21;;;;;;;75.50;42.70;;;;;;;;;;2081898;28;20192;-58
2022/01/08 05:29:21;;;;;;;78.93;43.73;;;;;;;;;;2081333;28;20748;-55
2022/01/08 05:30:22;;;;;;;69.03;42.23;;;;;;;;;;2080705;28;20180;-54
2022/01/08 05:31:23;;;;;;;70.87;43.80;;;;;;;;;;2080849;28;20206;-58
2022/01/08 05:32:23;;;;;;;64.80;40.43;;;;;;;;;;2081060;28;20176;-52
2022/01/08 05:33:23;;;;;;;67.30;43.27;;;;;;;;;;2073272;28;20414;-54
2022/01/08 05:34:24;;;;;;;72.03;45.03;;;;;;;;;;2073846;28;20161;-57
2022/01/08 05:35:25;;;;;;;72.73;43.73;;;;;;;;;;2073749;28;20703;-56
2022/01/08 05:36:26;;;;;;;72.03;42.53;;;;;;;;;;2073331;28;20204;-53
2022/01/08 05:37:26;;;;;;;65.40;44.07;;;;;;;;;;2076984;28;20453;-55
2022/01/08 05:38:26;;;;;;;71.03;43.30;;;;;;;;;;2077301;28;20254;-55
2022/01/08 05:39:26;;;;;;;70.23;42.27;;;;;;;;;;2073028;28;20173;-55
2022/01/08 05:40:26;;;;;;;67.43;41.70;;;;;;;;;;2073130;28;20185;-55
2022/01/08 05:41:27;;;;;;;67.67;37.83;;;;;;;;;;2081275;28;20165;-56
2022/01/08 05:42:27;;;;;;;69.40;42.63;;;;;;;;;;2082086;28;20188;-56
2022/01/08 05:43:27;;;;;;;69.03;40.40;;;;;;;;;;2080222;28;20238;-53
2022/01/08 05:44:27;;;;;;;69.97;43.87;;;;;;;;;;2076263;28;20176;-56
2022/01/08 05:45:28;;;;;;;74.07;42.07;;;;;;;;;;2081675;28;20657;-53
2022/01/08 05:46:28;;;;;;;67.33;40.37;;;;;;;;;;2079468;28;20259;-53
2022/01/08 05:47:31;;;;;;;69.53;41.10;;;;;;;;;;2076246;28;20172;-55
2022/01/08 05:48:31;;;;;;;71.33;44.27;;;;;;;;;;2081890;28;20184;-55
2022/01/08 05:49:32;;;;;;;64.67;42.83;;;;;;;;;;2081911;28;20823;-56
2022/01/08 05:50:32;;;;;;;70.40;41.87;;;;;;;;;;2072676;28;20172;-55
2022/01/08 05:51:32;;;;;;;69.23;41.17;;;;;;;;;;2072911;28;20263;-53
2022/01/08 05:52:32;;;;;;;65.63;40.17;;;;;;;;;;2081659;28;20187;-53
2022/01/08 05:53:33;;;;;;;63.17;39.47;;;;;;;;;;2081313;28;20644;-56
2022/01/08 05:54:33;;;;;;;65.37;40.53;;;;;;;;;;2081739;28;20263;-54
2022/01/08 05:55:33;;;;;;;71.63;42.97;;;;;;;;;;2082029;28;20247;-53
2022/01/08 05:56:34;;;;;;;64.33;40.40;;;;;;;;;;2081103;28;20266;-53
2022/01/08 05:57:34;;;;;;;61.43;39.63;;;;;;;;;;2077988;28;20264;-55
2022/01/08 05:58:34;;;;;;;66.57;39.47;;;;;;;;;;2078477;28;20214;-55
2022/01/08 05:59:35;;;;;;;64.87;38.13;;;;;;;;;;2072817;28;20177;-52
2022/01/08 06:00:35;;;;;;;66.67;42.77;;;;;;;;;;2071629;28;20209;-57
2022/01/08 06:01:35;;;;;;;71.57;43.47;;;;;;;;;;2081180;28;20175;-56
2022/01/08 06:02:36;;;;;;;61.70;38.37;;;;;;;;;;2077575;28;20652;-55
2022/01/08 06:03:36;;;;;;;71.37;41.53;;;;;;;;;;2077834;28;20196;-55
2022/01/08 06:04:37;;;;;;;70.27;42.23;;;;;;;;;;2079949;28;20409;-53
2022/01/08 06:05:37;;;;;;;69.90;42.50;;;;;;;;;;2079851;28;20180;-55
2022/01/08 06:06:39;;;;;;;71.00;42.93;;;;;;;;;;2081275;28;20183;-52
2022/01/08 06:07:40;;;;;;;69.33;41.40;;;;;;;;;;2082171;28;20172;-55
2022/01/08 06:08:40;;;;;;;73.00;43.43;;;;;;;;;;2079879;28;20532;-52
2022/01/08 06:09:40;;;;;;;70.67;44.13;;;;;;;;;;2076185;28;20192;-57
2022/01/08 06:10:40;;;;;;;64.13;41.73;;;;;;;;;;2078178;28;20255;-55
2022/01/08 06:11:41;;;;;;;64.90;41.73;;;;;;;;;;2081735;28;20179;-53
2022/01/08 06:12:41;;;;;;;74.23;43.87;;;;;;;;;;2081219;28;20172;-56
2022/01/08 06:13:41;;;;;;;61.30;38.80;;;;;;;;;;2082059;28;20599;-56